Terminal Aerodrome Forecast
Issued by NWS

Home | Current Version | Previous Version | Text Only | Print | Product List | Glossary On
Versions: 1 2 3 4 5 6 7 8 9 10 11 12 13 14 15 16 17 18 19
000
FTUS43 KFGF 262321
TAFDVL
TAF
KDVL 262321Z 2700/2724 28017KT P6SM SCT060
      TEMPO 2700/2702 BKN060
     FM270200 27009KT P6SM FEW200
     FM272000 29012KT P6SM BKN070=

USA.gov is the U.S. government's official web portal to all federal, state and local government web resources and services.